sensor_id;sensor_type;location;lat;lon;timestamp;pressure;altitude;pressure_sealevel;temperature;humidity
46714;BME280;32445;51.376;10.874;2023-05-02T00:02:35;99321.63;;;14.48;42.71
46714;BME280;32445;51.376;10.874;2023-05-02T00:05:35;99317.53;;;14.43;42.50
46714;BME280;32445;51.376;10.874;2023-05-02T00:08:36;99314.31;;;14.38;43.04
46714;BME280;32445;51.376;10.874;2023-05-02T00:11:36;99311.84;;;14.34;43.20
46714;BME280;32445;51.376;10.874;2023-05-02T00:14:37;99312.88;;;14.30;43.27
46714;BME280;32445;51.376;10.874;2023-05-02T00:17:40;99313.94;;;14.26;43.32
46714;BME280;32445;51.376;10.874;2023-05-02T00:20:43;99321.03;;;14.23;43.46
46714;BME280;32445;51.376;10.874;2023-05-02T00:23:44;99315.97;;;14.19;43.39
46714;BME280;32445;51.376;10.874;2023-05-02T00:26:44;99316.03;;;14.18;43.58
46714;BME280;32445;51.376;10.874;2023-05-02T00:29:45;99324.00;;;14.15;43.76
46714;BME280;32445;51.376;10.874;2023-05-02T00:32:46;99313.69;;;14.12;43.75
46714;BME280;32445;51.376;10.874;2023-05-02T00:35:47;99321.59;;;14.10;43.82
46714;BME280;32445;51.376;10.874;2023-05-02T00:38:47;99319.06;;;14.09;43.85
46714;BME280;32445;51.376;10.874;2023-05-02T00:41:47;99319.97;;;14.08;43.99
46714;BME280;32445;51.376;10.874;2023-05-02T00:44:48;99328.78;;;14.05;44.04
46714;BME280;32445;51.376;10.874;2023-05-02T00:47:49;99333.22;;;14.03;44.17
46714;BME280;32445;51.376;10.874;2023-05-02T00:50:50;99341.13;;;14.01;44.53
46714;BME280;32445;51.376;10.874;2023-05-02T00:53:50;99334.31;;;13.97;45.09
46714;BME280;32445;51.376;10.874;2023-05-02T00:56:51;99351.72;;;13.97;45.22
46714;BME280;32445;51.376;10.874;2023-05-02T00:59:52;99343.13;;;13.95;45.34
46714;BME280;32445;51.376;10.874;2023-05-02T01:03:06;99343.25;;;13.92;45.34
46714;BME280;32445;51.376;10.874;2023-05-02T01:06:34;99348.56;;;13.90;45.92
46714;BME280;32445;51.376;10.874;2023-05-02T01:09:53;99344.25;;;13.89;46.35
46714;BME280;32445;51.376;10.874;2023-05-02T01:13:06;99341.91;;;13.83;47.34
46714;BME280;32445;51.376;10.874;2023-05-02T01:16:10;99341.97;;;13.81;46.91
46714;BME280;32445;51.376;10.874;2023-05-02T01:19:24;99342.13;;;13.77;47.36
46714;BME280;32445;51.376;10.874;2023-05-02T01:22:27;99351.78;;;13.75;48.31
46714;BME280;32445;51.376;10.874;2023-05-02T01:28:58;99352.69;;;13.74;47.23
46714;BME280;32445;51.376;10.874;2023-05-02T01:31:59;99345.88;;;13.71;47.91
46714;BME280;32445;51.376;10.874;2023-05-02T01:35:02;99354.59;;;13.70;48.47
46714;BME280;32445;51.376;10.874;2023-05-02T01:38:03;99352.97;;;13.67;47.39
46714;BME280;32445;51.376;10.874;2023-05-02T01:41:05;99353.81;;;13.68;47.20
46714;BME280;32445;51.376;10.874;2023-05-02T01:44:06;99357.28;;;13.69;47.39
46714;BME280;32445;51.376;10.874;2023-05-02T01:47:08;99363.34;;;13.69;47.49
46714;BME280;32445;51.376;10.874;2023-05-02T01:50:11;99354.66;;;13.69;47.80
46714;BME280;32445;51.376;10.874;2023-05-02T01:53:13;99358.06;;;13.71;48.59
46714;BME280;32445;51.376;10.874;2023-05-02T01:56:17;99362.50;;;13.69;49.12
46714;BME280;32445;51.376;10.874;2023-05-02T01:59:19;99352.84;;;13.71;49.03
46714;BME280;32445;51.376;10.874;2023-05-02T02:02:25;99362.38;;;13.72;48.95
46714;BME280;32445;51.376;10.874;2023-05-02T02:05:29;99371.91;;;13.73;48.67
46714;BME280;32445;51.376;10.874;2023-05-02T02:08:30;99370.19;;;13.72;49.37
46714;BME280;32445;51.376;10.874;2023-05-02T02:11:35;99377.28;;;13.68;50.08
46714;BME280;32445;51.376;10.874;2023-05-02T02:14:38;99381.66;;;13.67;50.26
46714;BME280;32445;51.376;10.874;2023-05-02T02:17:46;99381.78;;;13.64;51.02
46714;BME280;32445;51.376;10.874;2023-05-02T02:20:47;99384.41;;;13.64;50.71
46714;BME280;32445;51.376;10.874;2023-05-02T02:23:49;99390.50;;;13.63;49.98
46714;BME280;32445;51.376;10.874;2023-05-02T02:26:50;99380.91;;;13.64;50.01
46714;BME280;32445;51.376;10.874;2023-05-02T02:29:50;99383.72;;;13.59;50.28
46714;BME280;32445;51.376;10.874;2023-05-02T02:32:51;99389.00;;;13.58;50.72
46714;BME280;32445;51.376;10.874;2023-05-02T02:35:56;99391.59;;;13.58;51.12
46714;BME280;32445;51.376;10.874;2023-05-02T02:46:32;99402.03;;;13.58;51.22
46714;BME280;32445;51.376;10.874;2023-05-02T02:53:08;99401.75;;;13.65;50.74
46714;BME280;32445;51.376;10.874;2023-05-02T02:56:34;99412.22;;;13.64;51.41
46714;BME280;32445;51.376;10.874;2023-05-02T02:59:39;99416.59;;;13.63;51.01
46714;BME280;32445;51.376;10.874;2023-05-02T03:02:42;99420.22;;;13.59;51.29
46714;BME280;32445;51.376;10.874;2023-05-02T03:05:43;99423.88;;;13.55;52.00
46714;BME280;32445;51.376;10.874;2023-05-02T03:08:44;99430.22;;;13.48;52.85
46714;BME280;32445;51.376;10.874;2023-05-02T03:11:44;99435.50;;;13.46;52.16
46714;BME280;32445;51.376;10.874;2023-05-02T03:14:45;99440.00;;;13.43;52.66
46714;BME280;32445;51.376;10.874;2023-05-02T03:17:46;99436.47;;;13.44;52.26
46714;BME280;32445;51.376;10.874;2023-05-02T03:20:46;99435.50;;;13.46;51.67
46714;BME280;32445;51.376;10.874;2023-05-02T03:23:46;99441.34;;;13.53;51.60
46714;BME280;32445;51.376;10.874;2023-05-02T03:26:47;99452.47;;;13.58;51.14
46714;BME280;32445;51.376;10.874;2023-05-02T03:29:47;99457.56;;;13.61;50.78
46714;BME280;32445;51.376;10.874;2023-05-02T03:32:48;99463.47;;;13.65;50.81
46714;BME280;32445;51.376;10.874;2023-05-02T03:35:49;99472.09;;;13.67;50.47
46714;BME280;32445;51.376;10.874;2023-05-02T03:38:49;99474.66;;;13.69;50.32
46714;BME280;32445;51.376;10.874;2023-05-02T03:41:50;99474.53;;;13.72;50.09
46714;BME280;32445;51.376;10.874;2023-05-02T03:44:53;99474.66;;;13.69;50.53
46714;BME280;32445;51.376;10.874;2023-05-02T03:47:53;99478.22;;;13.66;50.37
46714;BME280;32445;51.376;10.874;2023-05-02T03:50:54;99480.78;;;13.67;50.21
46714;BME280;32445;51.376;10.874;2023-05-02T03:53:54;99485.16;;;13.67;50.40
46714;BME280;32445;51.376;10.874;2023-05-02T03:56:54;99491.16;;;13.69;50.20
46714;BME280;32445;51.376;10.874;2023-05-02T03:59:55;99488.47;;;13.71;49.85
46714;BME280;32445;51.376;10.874;2023-05-02T04:02:55;99487.63;;;13.70;49.75
46714;BME280;32445;51.376;10.874;2023-05-02T04:05:56;99492.84;;;13.70;49.87
46714;BME280;32445;51.376;10.874;2023-05-02T04:08:56;99497.16;;;13.71;49.49
46714;BME280;32445;51.376;10.874;2023-05-02T04:11:57;99507.53;;;13.73;49.60
46714;BME280;32445;51.376;10.874;2023-05-02T04:14:58;99510.25;;;13.70;49.88
46714;BME280;32445;51.376;10.874;2023-05-02T04:17:58;99512.06;;;13.67;49.73
46714;BME280;32445;51.376;10.874;2023-05-02T04:20:58;99519.91;;;13.67;49.79
46714;BME280;32445;51.376;10.874;2023-05-02T04:23:59;99524.38;;;13.64;50.48
46714;BME280;32445;51.376;10.874;2023-05-02T04:26:59;99525.41;;;13.60;50.66
46714;BME280;32445;51.376;10.874;2023-05-02T04:30:00;99536.75;;;13.59;50.79
46714;BME280;32445;51.376;10.874;2023-05-02T04:33:00;99536.69;;;13.60;50.58
46714;BME280;32445;51.376;10.874;2023-05-02T04:36:01;99541.84;;;13.62;50.57
46714;BME280;32445;51.376;10.874;2023-05-02T04:39:02;99555.84;;;13.59;51.13
46714;BME280;32445;51.376;10.874;2023-05-02T04:42:03;99560.34;;;13.56;51.45
46714;BME280;32445;51.376;10.874;2023-05-02T04:45:04;99563.72;;;13.58;50.93
46714;BME280;32445;51.376;10.874;2023-05-02T04:48:05;99564.69;;;13.55;51.96
46714;BME280;32445;51.376;10.874;2023-05-02T04:51:05;99568.28;;;13.53;52.21
46714;BME280;32445;51.376;10.874;2023-05-02T04:54:06;99578.81;;;13.49;52.49
46714;BME280;32445;51.376;10.874;2023-05-02T04:57:06;99581.47;;;13.48;52.35
46714;BME280;32445;51.376;10.874;2023-05-02T05:00:09;99580.50;;;13.50;52.82
46714;BME280;32445;51.376;10.874;2023-05-02T05:03:10;99592.53;;;13.55;52.72
46714;BME280;32445;51.376;10.874;2023-05-02T05:06:10;99591.75;;;13.53;53.26
46714;BME280;32445;51.376;10.874;2023-05-02T05:09:11;99593.50;;;13.52;53.45
46714;BME280;32445;51.376;10.874;2023-05-02T05:12:11;99597.81;;;13.53;53.30
46714;BME280;32445;51.376;10.874;2023-05-02T05:15:12;99597.81;;;13.53;53.87
46714;BME280;32445;51.376;10.874;2023-05-02T05:18:13;99602.25;;;13.51;54.00
46714;BME280;32445;51.376;10.874;2023-05-02T05:21:13;99602.25;;;13.51;54.27
46714;BME280;32445;51.376;10.874;2023-05-02T05:24:14;99611.69;;;13.54;53.79
46714;BME280;32445;51.376;10.874;2023-05-02T05:27:14;99609.84;;;13.57;54.02
46714;BME280;32445;51.376;10.874;2023-05-02T05:30:15;99623.59;;;13.61;53.78
46714;BME280;32445;51.376;10.874;2023-05-02T05:33:15;99628.69;;;13.64;53.97
46714;BME280;32445;51.376;10.874;2023-05-02T05:36:16;99629.44;;;13.67;53.82
46714;BME280;32445;51.376;10.874;2023-05-02T05:39:16;99632.84;;;13.70;54.21
46714;BME280;32445;51.376;10.874;2023-05-02T05:42:16;99630.19;;;13.71;53.82
46714;BME280;32445;51.376;10.874;2023-05-02T05:45:17;99631.81;;;13.74;54.13
46714;BME280;32445;51.376;10.874;2023-05-02T05:48:18;99634.56;;;13.71;54.13
46714;BME280;32445;51.376;10.874;2023-05-02T05:51:19;99648.50;;;13.70;54.09
46714;BME280;32445;51.376;10.874;2023-05-02T05:54:19;99644.22;;;13.69;53.73
46714;BME280;32445;51.376;10.874;2023-05-02T05:57:20;99651.06;;;13.71;53.56
46714;BME280;32445;51.376;10.874;2023-05-02T06:00:20;99655.53;;;13.67;53.95
46714;BME280;32445;51.376;10.874;2023-05-02T06:03:21;99659.84;;;13.69;54.00
46714;BME280;32445;51.376;10.874;2023-05-02T06:06:21;99657.13;;;13.72;54.42
46714;BME280;32445;51.376;10.874;2023-05-02T06:09:22;99664.78;;;13.76;54.06
46714;BME280;32445;51.376;10.874;2023-05-02T06:12:22;99669.03;;;13.79;54.56
46714;BME280;32445;51.376;10.874;2023-05-02T06:15:23;99681.06;;;13.83;54.27
46714;BME280;32445;51.376;10.874;2023-05-02T06:18:23;99683.44;;;13.89;54.13
46714;BME280;32445;51.376;10.874;2023-05-02T06:21:23;99688.53;;;13.92;54.60
46714;BME280;32445;51.376;10.874;2023-05-02T06:24:24;99684.91;;;13.96;54.27
46714;BME280;32445;51.376;10.874;2023-05-02T06:27:24;99691.66;;;14.02;54.10
46714;BME280;32445;51.376;10.874;2023-05-02T06:30:24;99700.97;;;14.09;54.03
46714;BME280;32445;51.376;10.874;2023-05-02T06:33:29;99706.81;;;14.16;54.25
46714;BME280;32445;51.376;10.874;2023-05-02T06:36:30;99707.53;;;14.19;53.90
46714;BME280;32445;51.376;10.874;2023-05-02T06:39:32;99714.34;;;14.24;53.97
46714;BME280;32445;51.376;10.874;2023-05-02T06:42:32;99727.28;;;14.27;53.53
46714;BME280;32445;51.376;10.874;2023-05-02T06:45:32;99734.03;;;14.32;52.80
46714;BME280;32445;51.376;10.874;2023-05-02T06:48:36;99733.91;;;14.35;53.14
46714;BME280;32445;51.376;10.874;2023-05-02T06:51:36;99739.19;;;14.34;53.43
46714;BME280;32445;51.376;10.874;2023-05-02T06:54:37;99745.28;;;14.34;53.11
46714;BME280;32445;51.376;10.874;2023-05-02T06:57:38;99753.97;;;14.35;53.17
46714;BME280;32445;51.376;10.874;2023-05-02T07:00:39;99755.56;;;14.39;53.01
46714;BME280;32445;51.376;10.874;2023-05-02T07:03:40;99757.88;;;14.47;53.21
46714;BME280;32445;51.376;10.874;2023-05-02T07:06:40;99757.72;;;14.51;53.35
46714;BME280;32445;51.376;10.874;2023-05-02T07:09:41;99765.38;;;14.56;52.91
46714;BME280;32445;51.376;10.874;2023-05-02T07:12:41;99767.91;;;14.58;52.88
46714;BME280;32445;51.376;10.874;2023-05-02T07:15:41;99766.16;;;14.58;53.16
46714;BME280;32445;51.376;10.874;2023-05-02T07:18:42;99768.81;;;14.57;53.16
46714;BME280;32445;51.376;10.874;2023-05-02T07:21:44;99770.41;;;14.61;53.28
46714;BME280;32445;51.376;10.874;2023-05-02T07:24:45;99778.03;;;14.67;53.36
46714;BME280;32445;51.376;10.874;2023-05-02T07:27:45;99780.50;;;14.72;53.61
46714;BME280;32445;51.376;10.874;2023-05-02T07:30:46;99775.06;;;14.76;53.12
46714;BME280;32445;51.376;10.874;2023-05-02T07:33:46;99776.41;;;14.86;52.67
46714;BME280;32445;51.376;10.874;2023-05-02T07:36:47;99775.31;;;14.92;52.98
46714;BME280;32445;51.376;10.874;2023-05-02T07:39:47;99783.84;;;14.97;52.35
46714;BME280;32445;51.376;10.874;2023-05-02T07:42:47;99784.44;;;15.04;52.16
46714;BME280;32445;51.376;10.874;2023-05-02T07:45:49;99794.53;;;15.13;52.00
46714;BME280;32445;51.376;10.874;2023-05-02T07:48:50;99783.88;;;15.18;51.45
46714;BME280;32445;51.376;10.874;2023-05-02T07:51:50;99789.16;;;15.16;51.50
46714;BME280;32445;51.376;10.874;2023-05-02T07:54:50;99797.06;;;15.15;51.66
46714;BME280;32445;51.376;10.874;2023-05-02T07:57:51;99804.94;;;15.15;51.98
46714;BME280;32445;51.376;10.874;2023-05-02T08:00:52;99798.94;;;15.11;51.84
46714;BME280;32445;51.376;10.874;2023-05-02T08:03:52;99810.22;;;15.13;52.10
46714;BME280;32445;51.376;10.874;2023-05-02T08:06:53;99811.91;;;15.14;51.86
46714;BME280;32445;51.376;10.874;2023-05-02T08:09:54;99805.75;;;15.15;51.80
46714;BME280;32445;51.376;10.874;2023-05-02T08:12:54;99809.19;;;15.17;51.98
46714;BME280;32445;51.376;10.874;2023-05-02T08:15:54;99807.22;;;15.22;52.08
46714;BME280;32445;51.376;10.874;2023-05-02T08:18:57;99812.25;;;15.27;51.97
46714;BME280;32445;51.376;10.874;2023-05-02T08:21:57;99812.78;;;15.35;52.08
46714;BME280;32445;51.376;10.874;2023-05-02T08:24:58;99812.53;;;15.42;51.62
46714;BME280;32445;51.376;10.874;2023-05-02T08:27:58;99817.66;;;15.45;51.52
46714;BME280;32445;51.376;10.874;2023-05-02T08:30:58;99821.72;;;15.52;50.93
46714;BME280;32445;51.376;10.874;2023-05-02T08:33:59;99822.50;;;15.54;50.64
46714;BME280;32445;51.376;10.874;2023-05-02T08:36:59;99828.72;;;15.51;50.85
46714;BME280;32445;51.376;10.874;2023-05-02T08:40:00;99825.97;;;15.54;50.71
46714;BME280;32445;51.376;10.874;2023-05-02T08:43:00;99829.19;;;15.61;50.54
46714;BME280;32445;51.376;10.874;2023-05-02T08:46:04;99822.72;;;15.70;51.03
46714;BME280;32445;51.376;10.874;2023-05-02T08:49:06;99824.50;;;15.90;50.16
46714;BME280;32445;51.376;10.874;2023-05-02T08:52:11;99822.81;;;16.09;50.12
46714;BME280;32445;51.376;10.874;2023-05-02T08:55:12;99828.13;;;16.27;49.38
46714;BME280;32445;51.376;10.874;2023-05-02T08:58:12;99834.50;;;16.40;48.60
46714;BME280;32445;51.376;10.874;2023-05-02T09:01:17;99851.03;;;16.42;48.37
46714;BME280;32445;51.376;10.874;2023-05-02T09:04:22;99852.47;;;16.50;47.96
46714;BME280;32445;51.376;10.874;2023-05-02T09:07:23;99853.16;;;16.53;48.36
46714;BME280;32445;51.376;10.874;2023-05-02T09:10:24;99860.41;;;16.67;48.50
46714;BME280;32445;51.376;10.874;2023-05-02T09:13:37;99851.19;;;16.77;49.27
46714;BME280;32445;51.376;10.874;2023-05-02T09:16:38;99864.13;;;17.01;48.75
46714;BME280;32445;51.376;10.874;2023-05-02T09:19:39;99868.50;;;17.20;47.37
46714;BME280;32445;51.376;10.874;2023-05-02T09:22:50;99863.09;;;17.23;46.86
46714;BME280;32445;51.376;10.874;2023-05-02T09:25:51;99875.75;;;17.32;46.66
46714;BME280;32445;51.376;10.874;2023-05-02T09:28:53;99877.03;;;17.42;46.35
46714;BME280;32445;51.376;10.874;2023-05-02T09:31:53;99879.19;;;17.52;46.21
46714;BME280;32445;51.376;10.874;2023-05-02T09:35:06;99882.31;;;17.60;45.63
46714;BME280;32445;51.376;10.874;2023-05-02T09:38:18;99885.38;;;17.51;45.75
46714;BME280;32445;51.376;10.874;2023-05-02T09:41:20;99903.69;;;17.33;45.56
46714;BME280;32445;51.376;10.874;2023-05-02T09:44:27;99904.88;;;17.08;46.43
46714;BME280;32445;51.376;10.874;2023-05-02T09:47:35;99909.19;;;16.90;47.47
46714;BME280;32445;51.376;10.874;2023-05-02T09:50:37;99912.00;;;16.86;47.85
46714;BME280;32445;51.376;10.874;2023-05-02T09:53:42;99912.13;;;16.83;48.32
46714;BME280;32445;51.376;10.874;2023-05-02T09:56:54;99921.72;;;16.84;48.97
46714;BME280;32445;51.376;10.874;2023-05-02T09:59:56;99922.22;;;16.92;48.93
46714;BME280;32445;51.376;10.874;2023-05-02T10:02:57;99921.84;;;16.81;49.94
46714;BME280;32445;51.376;10.874;2023-05-02T10:05:57;99925.31;;;16.81;49.75
46714;BME280;32445;51.376;10.874;2023-05-02T10:08:58;99938.75;;;16.73;49.92
46714;BME280;32445;51.376;10.874;2023-05-02T10:12:01;99942.84;;;16.60;50.11
46714;BME280;32445;51.376;10.874;2023-05-02T10:15:08;99949.34;;;16.51;49.96
46714;BME280;32445;51.376;10.874;2023-05-02T10:18:14;99949.34;;;16.51;50.30
46714;BME280;32445;51.376;10.874;2023-05-02T10:21:24;99950.31;;;16.49;49.21
46714;BME280;32445;51.376;10.874;2023-05-02T10:24:26;99949.63;;;16.45;49.20
46714;BME280;32445;51.376;10.874;2023-05-02T10:27:29;99958.59;;;16.39;49.33
46714;BME280;32445;51.376;10.874;2023-05-02T10:30:30;99954.19;;;16.40;49.37
46714;BME280;32445;51.376;10.874;2023-05-02T10:33:33;99958.72;;;16.36;49.34
46714;BME280;32445;51.376;10.874;2023-05-02T10:36:34;99962.19;;;16.37;49.45
46714;BME280;32445;51.376;10.874;2023-05-02T10:39:35;99958.72;;;16.36;49.41
46714;BME280;32445;51.376;10.874;2023-05-02T10:42:42;99966.59;;;16.36;50.00
46714;BME280;32445;51.376;10.874;2023-05-02T10:45:44;99967.81;;;16.48;49.93
46714;BME280;32445;51.376;10.874;2023-05-02T10:49:02;99959.13;;;16.48;50.04
46714;BME280;32445;51.376;10.874;2023-05-02T10:52:32;99972.16;;;16.49;50.52
46714;BME280;32445;51.376;10.874;2023-05-02T10:55:33;99972.22;;;16.48;50.26
46714;BME280;32445;51.376;10.874;2023-05-02T10:58:34;99969.63;;;16.46;49.93
46714;BME280;32445;51.376;10.874;2023-05-02T11:01:35;99972.78;;;16.54;49.71
46714;BME280;32445;51.376;10.874;2023-05-02T11:08:29;99979.47;;;16.82;49.27
46714;BME280;32445;51.376;10.874;2023-05-02T11:11:40;99972.63;;;16.99;48.97
46714;BME280;32445;51.376;10.874;2023-05-02T11:14:42;99980.94;;;17.08;48.26
46714;BME280;32445;51.376;10.874;2023-05-02T11:18:05;99975.31;;;17.16;48.19
46714;BME280;32445;51.376;10.874;2023-05-02T11:21:24;99975.13;;;17.40;48.67
46714;BME280;32445;51.376;10.874;2023-05-02T11:24:36;99970.91;;;17.55;47.36
46714;BME280;32445;51.376;10.874;2023-05-02T11:27:38;99974.94;;;17.62;46.97
46714;BME280;32445;51.376;10.874;2023-05-02T11:30:40;99979.28;;;17.63;47.03
46714;BME280;32445;51.376;10.874;2023-05-02T11:33:54;99982.47;;;17.70;46.96
46714;BME280;32445;51.376;10.874;2023-05-02T11:36:55;99983.94;;;17.75;46.04
46714;BME280;32445;51.376;10.874;2023-05-02T11:40:09;99987.31;;;17.60;45.66
46714;BME280;32445;51.376;10.874;2023-05-02T11:43:15;99982.34;;;17.54;46.24
46714;BME280;32445;51.376;10.874;2023-05-02T11:46:15;99993.47;;;17.59;46.20
46714;BME280;32445;51.376;10.874;2023-05-02T11:49:18;99994.94;;;17.64;45.80
46714;BME280;32445;51.376;10.874;2023-05-02T11:52:19;100006.09;;;17.70;45.04
46714;BME280;32445;51.376;10.874;2023-05-02T11:55:19;99993.25;;;17.63;44.89
46714;BME280;32445;51.376;10.874;2023-05-02T11:58:27;100000.56;;;17.57;44.37
46714;BME280;32445;51.376;10.874;2023-05-02T12:01:34;100005.19;;;17.52;44.53
46714;BME280;32445;51.376;10.874;2023-05-02T12:04:41;100015.81;;;17.49;43.78
46714;BME280;32445;51.376;10.874;2023-05-02T12:07:45;100021.78;;;17.33;43.84
46714;BME280;32445;51.376;10.874;2023-05-02T12:10:48;100023.66;;;17.10;43.77
46714;BME280;32445;51.376;10.874;2023-05-02T12:13:49;100020.94;;;17.14;44.57
46714;BME280;32445;51.376;10.874;2023-05-02T12:16:49;100028.44;;;17.02;43.91
46714;BME280;32445;51.376;10.874;2023-05-02T12:19:50;100025.91;;;16.99;44.48
46714;BME280;32445;51.376;10.874;2023-05-02T12:22:50;100026.09;;;17.15;43.99
46714;BME280;32445;51.376;10.874;2023-05-02T12:25:51;100019.84;;;17.18;44.28
46714;BME280;32445;51.376;10.874;2023-05-02T12:28:52;100021.09;;;17.29;44.42
46714;BME280;32445;51.376;10.874;2023-05-02T12:31:57;100030.16;;;17.41;43.34
46714;BME280;32445;51.376;10.874;2023-05-02T12:35:00;100027.59;;;17.40;43.23
46714;BME280;32445;51.376;10.874;2023-05-02T12:38:12;100033.97;;;17.53;43.80
46714;BME280;32445;51.376;10.874;2023-05-02T12:41:13;100041.81;;;17.72;42.74
46714;BME280;32445;51.376;10.874;2023-05-02T12:44:14;100044.44;;;17.72;41.89
46714;BME280;32445;51.376;10.874;2023-05-02T12:47:15;100058.38;;;17.74;41.95
46714;BME280;32445;51.376;10.874;2023-05-02T12:50:16;100048.88;;;17.72;41.34
46714;BME280;32445;51.376;10.874;2023-05-02T12:53:16;100053.34;;;17.70;41.85
46714;BME280;32445;51.376;10.874;2023-05-02T12:56:17;100058.75;;;17.67;42.07
46714;BME280;32445;51.376;10.874;2023-05-02T12:59:31;100067.31;;;17.70;40.51
46714;BME280;32445;51.376;10.874;2023-05-02T13:02:31;100074.50;;;17.67;40.34
46714;BME280;32445;51.376;10.874;2023-05-02T13:05:32;100069.44;;;17.62;39.98
46714;BME280;32445;51.376;10.874;2023-05-02T13:08:33;100067.88;;;17.58;40.52
46714;BME280;32445;51.376;10.874;2023-05-02T13:11:33;100075.28;;;17.50;39.94
46714;BME280;32445;51.376;10.874;2023-05-02T13:14:34;100076.47;;;17.42;40.17
46714;BME280;32445;51.376;10.874;2023-05-02T13:17:34;100084.81;;;17.51;40.09
46714;BME280;32445;51.376;10.874;2023-05-02T13:20:36;100085.13;;;17.44;40.28
46714;BME280;32445;51.376;10.874;2023-05-02T13:23:36;100096.41;;;17.46;40.59
46714;BME280;32445;51.376;10.874;2023-05-02T13:26:39;100093.91;;;17.43;40.88
46714;BME280;32445;51.376;10.874;2023-05-02T13:29:39;100093.19;;;17.40;40.95
46714;BME280;32445;51.376;10.874;2023-05-02T13:32:40;100100.34;;;17.36;41.00
46714;BME280;32445;51.376;10.874;2023-05-02T13:35:40;100100.69;;;17.28;41.48
46714;BME280;32445;51.376;10.874;2023-05-02T13:38:41;100099.56;;;17.15;40.82
46714;BME280;32445;51.376;10.874;2023-05-02T13:41:41;100114.75;;;17.07;41.43
46714;BME280;32445;51.376;10.874;2023-05-02T13:44:42;100114.22;;;16.99;41.24
46714;BME280;32445;51.376;10.874;2023-05-02T13:47:42;100125.19;;;16.86;40.82
46714;BME280;32445;51.376;10.874;2023-05-02T13:50:43;100113.34;;;16.77;40.77
46714;BME280;32445;51.376;10.874;2023-05-02T13:53:43;100111.03;;;16.70;40.81
46714;BME280;32445;51.376;10.874;2023-05-02T13:56:43;100119.94;;;16.66;40.30
46714;BME280;32445;51.376;10.874;2023-05-02T13:59:44;100131.94;;;16.51;39.75
46714;BME280;32445;51.376;10.874;2023-05-02T14:02:44;100131.69;;;16.35;40.39
46714;BME280;32445;51.376;10.874;2023-05-02T14:05:47;100123.03;;;16.33;40.19
46714;BME280;32445;51.376;10.874;2023-05-02T14:08:47;100126.34;;;16.38;40.50
46714;BME280;32445;51.376;10.874;2023-05-02T14:11:48;100123.59;;;16.41;40.49
46714;BME280;32445;51.376;10.874;2023-05-02T14:14:48;100133.94;;;16.44;40.15
46714;BME280;32445;51.376;10.874;2023-05-02T14:17:49;100144.84;;;16.33;40.25
46714;BME280;32445;51.376;10.874;2023-05-02T14:20:49;100139.72;;;16.30;39.92
46714;BME280;32445;51.376;10.874;2023-05-02T14:23:49;100137.16;;;16.29;40.23
46714;BME280;32445;51.376;10.874;2023-05-02T14:26:50;100146.69;;;16.31;39.72
46714;BME280;32445;51.376;10.874;2023-05-02T14:29:50;100152.44;;;16.17;40.09
46714;BME280;32445;51.376;10.874;2023-05-02T14:32:50;100161.13;;;16.19;40.59
46714;BME280;32445;51.376;10.874;2023-05-02T14:35:51;100158.56;;;16.18;40.25
46714;BME280;32445;51.376;10.874;2023-05-02T14:38:54;100158.13;;;16.06;41.00
46714;BME280;32445;51.376;10.874;2023-05-02T14:41:55;100159.47;;;16.17;41.22
46714;BME280;32445;51.376;10.874;2023-05-02T14:44:55;100167.06;;;16.23;40.41
46714;BME280;32445;51.376;10.874;2023-05-02T14:47:56;100165.66;;;16.14;40.48
46714;BME280;32445;51.376;10.874;2023-05-02T14:50:57;100179.19;;;16.03;40.99
46714;BME280;32445;51.376;10.874;2023-05-02T14:53:59;100182.88;;;15.98;40.99
46714;BME280;32445;51.376;10.874;2023-05-02T14:57:01;100185.16;;;15.83;40.44
46714;BME280;32445;51.376;10.874;2023-05-02T15:00:11;100185.06;;;15.86;40.55
46714;BME280;32445;51.376;10.874;2023-05-02T15:03:11;100187.44;;;15.93;40.12
46714;BME280;32445;51.376;10.874;2023-05-02T15:06:12;100185.91;;;15.87;40.55
46714;BME280;32445;51.376;10.874;2023-05-02T15:09:13;100195.59;;;15.85;40.77
46714;BME280;32445;51.376;10.874;2023-05-02T15:12:15;100221.97;;;15.79;40.61
46714;BME280;32445;51.376;10.874;2023-05-02T15:15:18;100209.06;;;15.72;40.77
46714;BME280;32445;51.376;10.874;2023-05-02T15:18:23;100214.47;;;15.68;41.03
46714;BME280;32445;51.376;10.874;2023-05-02T15:21:24;100214.47;;;15.68;40.78
46714;BME280;32445;51.376;10.874;2023-05-02T15:24:24;100218.66;;;15.73;40.80
46714;BME280;32445;51.376;10.874;2023-05-02T15:27:25;100212.31;;;15.81;40.26
46714;BME280;32445;51.376;10.874;2023-05-02T15:30:29;100218.00;;;15.92;40.45
46714;BME280;32445;51.376;10.874;2023-05-02T15:33:29;100221.16;;;16.02;40.00
46714;BME280;32445;51.376;10.874;2023-05-02T15:36:30;100220.22;;;16.03;39.34
46714;BME280;32445;51.376;10.874;2023-05-02T15:39:31;100230.16;;;15.93;39.81
46714;BME280;32445;51.376;10.874;2023-05-02T15:42:34;100221.53;;;15.91;39.61
46714;BME280;32445;51.376;10.874;2023-05-02T15:45:34;100217.94;;;15.94;40.01
46714;BME280;32445;51.376;10.874;2023-05-02T15:48:35;100230.09;;;15.95;38.99
46714;BME280;32445;51.376;10.874;2023-05-02T15:51:35;100225.88;;;15.92;38.84
46714;BME280;32445;51.376;10.874;2023-05-02T15:54:36;100234.19;;;15.78;38.86
46714;BME280;32445;51.376;10.874;2023-05-02T15:57:38;100241.44;;;15.70;38.98
46714;BME280;32445;51.376;10.874;2023-05-02T16:00:39;100247.75;;;15.64;39.40
46714;BME280;32445;51.376;10.874;2023-05-02T16:03:39;100249.69;;;15.59;39.04
46714;BME280;32445;51.376;10.874;2023-05-02T16:06:40;100248.56;;;15.66;39.65
46714;BME280;32445;51.376;10.874;2023-05-02T16:09:40;100254.53;;;15.70;39.39